Terminal Aerodrome Forecast
Issued by NWS

Current Version | Previous Version | Graphics & Text | Print | Product List | Glossary On
Versions: 1 2 3 4 5 6 7 8 9 10 11 12 13 14 15 16
677
FTUS41 KPBZ 080502 AAA
TAFMGW
TAF AMD
KMGW 080502Z 0805/0824 VRB05KT P6SM OVC025
     FM080700 27008KT P6SM BKN035
     FM081000 23005KT P6SM SCT030=

USA.gov is the U.S. government's official web portal to all federal, state and local government web resources and services.